Aérodrome :
LOGIN :

S'inscrire | Disclaimer

   EN    FR    IT 

 










Légende :    VFR   VFR Marginal   IFR   IFR Intensif   IFR Très Intensif
Visi : 
Plafond : 
>= 8 km
>= 3000ft
5 à 8 km
1000 à 3000 ft
1500m à 5 km
500 à 1000 ft
800 à 1500m
200 à 500 ft
< 800m
< 200 ft
Symboles :   Orages  Brouillard  Fortes neiges  Fortes précipitations  Vent > 20 kt
SIGMETs :   Divers  Orages  Givrage  Turbulence  Onde Orograph.  Cendres Volcan.






- Altitude de l'aérodrome : 1276 ft
- Code IATA : STR


EDDS - Stuttgart

DERNIER METAR :
  • 231050Z 19003KT 140V230 9999 -RA FEW035 SCT049 15/13 Q1014 NOSIG

METARs EXPIRÉS :
  • 231020Z 18004KT 150V220 9999 -RA FEW012 SCT035 15/12 Q1015 NOSIG
  • 230950Z 20003KT 150V270 9999 FEW003 SCT036 15/12 Q1015 NOSIG
  • 230920Z VRB03KT 9999 FEW013 BKN049 15/12 Q1015 NOSIG
  • 230850Z 17003KT 090V240 9999 FEW002 BKN049 15/12 Q1015 NOSIG
  • 230820Z VRB02KT 9999 FEW005 15/13 Q1015 NOSIG

TAF TAF EDDS
Valide du 23 à 06h jusqu'au 24 à 06h UTC


230500Z 2306/2406 19004KT 9999 BKN045
TEMPO 2306/2318 RA
TEMPO 2318/2324 22015G25KT SHRA BKN025CB



MET'MAP, la Météo Aéronautique d'un coup d'oeil ! - Copyright ORBIFLY Décembre 2007 - Disclaimer

ORBIFLY MET'MAP TEAM :

Programmation & Développement : Alexandra Zaïnal
Sur une idée originale de : Baudouin d'Aumeries
Assistance à la programmation : Marc-Olivier Méhu
Soutien technique & logistique : Manuel Goepfert

Contact : metmap@orbifly.com




SOURCES & CREDITS :

   NOAA